createdAt,value
2016-02-01T00:00:20.273Z,0
2016-02-01T00:01:20.276Z,0
2016-02-01T00:02:20.278Z,0
2016-02-01T00:03:20.312Z,0
2016-02-01T00:04:20.271Z,0
2016-02-01T00:05:20.273Z,0
2016-02-01T00:06:20.276Z,0
2016-02-01T00:07:20.264Z,0
2016-02-01T00:08:20.266Z,0
2016-02-01T00:09:20.284Z,0
2016-02-01T00:10:20.287Z,0
2016-02-01T00:11:20.275Z,0
2016-02-01T00:12:20.277Z,0
2016-02-01T00:13:20.248Z,0
2016-02-01T00:14:20.236Z,0
2016-02-01T00:15:20.254Z,0
2016-02-01T00:16:20.241Z,0
2016-02-01T00:17:20.244Z,0
2016-02-01T00:18:20.231Z,0
2016-02-01T00:19:20.234Z,0
2016-02-01T00:20:20.237Z,0
2016-02-01T00:21:20.236Z,0
2016-02-01T00:22:20.238Z,0
2016-02-01T00:23:20.222Z,0
2016-02-01T00:24:20.257Z,0
2016-02-01T00:25:20.241Z,0
2016-02-01T00:26:20.197Z,0
2016-02-01T00:27:20.407Z,0
2016-02-01T00:28:20.173Z,0
2016-02-01T00:29:20.176Z,0
2016-02-01T00:30:20.134Z,0
2016-02-01T00:31:20.116Z,0
2016-02-01T00:32:20.128Z,0
2016-02-01T00:33:20.126Z,0
2016-02-01T00:34:20.093Z,0
2016-02-01T00:35:20.106Z,0
2016-02-01T00:36:19.966Z,0
2016-02-01T00:37:20.139Z,0
2016-02-01T00:38:20.123Z,0
2016-02-01T00:39:20.077Z,0
2016-02-01T00:40:20.081Z,0
2016-02-01T00:41:20.082Z,0
2016-02-01T00:42:20.070Z,0
2016-02-01T00:43:20.072Z,0
2016-02-01T00:44:20.057Z,0
2016-02-01T00:45:20.076Z,0
2016-02-01T00:46:20.063Z,0
2016-02-01T00:47:20.096Z,0
2016-02-01T00:48:20.069Z,0
2016-02-01T00:49:20.057Z,0
2016-02-01T00:50:20.045Z,0
2016-02-01T00:51:20.047Z,0
2016-02-01T00:52:20.081Z,0
2016-02-01T00:53:20.053Z,0
2016-02-01T00:54:20.059Z,0
2016-02-01T00:55:20.077Z,0
2016-02-01T00:56:20.069Z,0
2016-02-01T00:57:20.040Z,0
2016-02-01T00:58:20.042Z,0
2016-02-01T00:59:20.045Z,0
2016-02-01T01:00:20.034Z,0
2016-02-01T01:01:20.037Z,0
2016-02-01T01:02:20.024Z,0
2016-02-01T01:03:20.026Z,0
2016-02-01T01:04:20.029Z,0
2016-02-01T01:05:20.019Z,0
2016-02-01T01:06:20.037Z,0
2016-02-01T01:07:20.040Z,0
2016-02-01T01:08:20.043Z,0
2016-02-01T01:09:20.002Z,0
2016-02-01T01:10:20.036Z,0
2016-02-01T01:11:20.039Z,0
2016-02-01T01:12:20.011Z,0
2016-02-01T01:13:19.997Z,0
2016-02-01T01:14:20.017Z,0
2016-02-01T01:15:20.003Z,0
2016-02-01T01:16:19.991Z,0
2016-02-01T01:17:20.009Z,0
2016-02-01T01:18:20.027Z,0
2016-02-01T01:19:19.999Z,0
2016-02-01T01:20:19.986Z,0
2016-02-01T01:21:19.993Z,0
2016-02-01T01:22:19.996Z,0
2016-02-01T01:23:19.983Z,0
2016-02-01T01:24:19.985Z,0
2016-02-01T01:25:19.848Z,0
2016-02-01T01:26:19.960Z,0
2016-02-01T01:27:19.979Z,0
2016-02-01T01:28:19.965Z,0
2016-02-01T01:29:19.952Z,0
2016-02-01T01:30:19.956Z,0
2016-02-01T01:31:19.975Z,0
2016-02-01T01:32:19.977Z,0
2016-02-01T01:33:19.964Z,0
2016-02-01T01:34:19.953Z,0
2016-02-01T01:35:19.955Z,0
2016-02-01T01:36:19.942Z,0
2016-02-01T01:37:19.961Z,0
2016-02-01T01:38:19.948Z,0
2016-02-01T01:39:19.935Z,0
2016-02-01T01:40:19.954Z,0
2016-02-01T01:41:19.944Z,0
2016-02-01T01:42:19.993Z,0
2016-02-01T01:43:19.981Z,0
2016-02-01T01:44:19.968Z,0
2016-02-01T01:45:19.908Z,0
2016-02-01T01:46:19.926Z,0
2016-02-01T01:47:19.929Z,0
2016-02-01T01:48:19.948Z,0
2016-02-01T01:49:19.934Z,0
2016-02-01T01:50:19.924Z,0
2016-02-01T01:51:19.990Z,0
2016-02-01T01:52:19.962Z,0
2016-02-01T01:53:19.899Z,0
2016-02-01T01:54:19.903Z,0
2016-02-01T01:55:19.922Z,0
2016-02-01T01:56:19.955Z,0
2016-02-01T01:57:19.911Z,0
2016-02-01T01:58:19.914Z,0
2016-02-01T01:59:19.905Z,0
2016-02-01T02:00:19.908Z,0
2016-02-01T02:01:19.912Z,0
2016-02-01T02:02:19.931Z,0
2016-02-01T02:03:19.933Z,0
2016-02-01T02:04:19.170Z,0
2016-02-01T02:05:19.913Z,0
2016-02-01T02:06:19.870Z,0
2016-02-01T02:07:19.874Z,0
2016-02-01T02:08:19.876Z,0
2016-02-01T02:09:19.910Z,0
2016-02-01T02:10:19.866Z,0
2016-02-01T02:11:19.869Z,0
2016-02-01T02:12:19.889Z,0
2016-02-01T02:13:19.876Z,0
2016-02-01T02:14:19.894Z,0
2016-02-01T02:15:19.866Z,0
2016-02-01T02:16:19.854Z,0
2016-02-01T02:17:19.888Z,0
2016-02-01T02:18:19.891Z,0
2016-02-01T02:19:19.862Z,0
2016-02-01T02:20:19.865Z,0
2016-02-01T02:21:19.868Z,0
2016-02-01T02:22:19.870Z,0
2016-02-01T02:23:19.857Z,0
2016-02-01T02:24:19.861Z,0
2016-02-01T02:25:19.910Z,0
2016-02-01T02:26:19.836Z,0
2016-02-01T02:27:19.839Z,0
2016-02-01T02:28:19.841Z,0
2016-02-01T02:29:19.859Z,0
2016-02-01T02:30:19.850Z,0
2016-02-01T02:31:19.852Z,0
2016-02-01T02:32:19.855Z,0
2016-02-01T02:33:19.827Z,0
2016-02-01T02:34:19.829Z,0
2016-02-01T02:35:19.833Z,0
2016-02-01T02:36:19.851Z,0
2016-02-01T02:37:19.838Z,0
2016-02-01T02:38:19.825Z,0
2016-02-01T02:39:19.864Z,0
2016-02-01T02:40:19.850Z,0
2016-02-01T02:41:19.839Z,0
2016-02-01T02:42:19.810Z,0
2016-02-01T02:43:19.875Z,0
2016-02-01T02:44:19.831Z,0
2016-02-01T02:45:19.834Z,0
2016-02-01T02:46:19.823Z,0
2016-02-01T02:47:20.075Z,0
2016-02-01T02:48:19.828Z,0
2016-02-01T02:49:19.847Z,0
2016-02-01T02:50:19.803Z,0
2016-02-01T02:51:19.800Z,0
2016-02-01T02:52:19.819Z,0
2016-02-01T02:53:19.793Z,0
2016-02-01T02:54:19.811Z,0
2016-02-01T02:55:19.800Z,0
2016-02-01T02:56:19.849Z,0
2016-02-01T02:57:19.806Z,0
2016-02-01T02:58:19.792Z,0
2016-02-01T02:59:19.779Z,0
2016-02-01T03:00:19.783Z,0
2016-02-01T03:01:19.802Z,0
2016-02-01T03:02:19.773Z,0
2016-02-01T03:03:19.760Z,0
2016-02-01T03:04:19.765Z,0
2016-02-01T03:05:19.768Z,0
2016-02-01T03:06:19.772Z,0
2016-02-01T03:07:19.774Z,0
2016-02-01T03:08:19.793Z,0
2016-02-01T03:09:19.749Z,0
2016-02-01T03:10:19.751Z,0
2016-02-01T03:11:19.786Z,0
2016-02-01T03:12:19.739Z,0
2016-02-01T03:13:19.726Z,0
2016-02-01T03:14:19.620Z,0
2016-02-01T03:15:19.595Z,0
2016-02-01T03:16:19.737Z,0
2016-02-01T03:17:19.739Z,0
2016-02-01T03:18:19.774Z,0
2016-02-01T03:19:19.870Z,0
2016-02-01T03:20:19.736Z,0
2016-02-01T03:21:19.722Z,0
2016-02-01T03:22:19.725Z,0
2016-02-01T03:23:19.743Z,0
2016-02-01T03:24:19.734Z,0
2016-02-01T03:25:19.737Z,0
2016-02-01T03:26:19.739Z,0
2016-02-01T03:27:19.743Z,0
2016-02-01T03:28:19.746Z,0
2016-02-01T03:29:19.561Z,0
2016-02-01T03:30:19.721Z,0
2016-02-01T03:31:19.708Z,0
2016-02-01T03:32:19.694Z,0
2016-02-01T03:33:19.697Z,0
2016-02-01T03:34:19.716Z,0
2016-02-01T03:35:19.703Z,0
2016-02-01T03:36:19.691Z,0
2016-02-01T03:37:19.714Z,0
2016-02-01T03:38:19.686Z,0
2016-02-01T03:39:19.673Z,0
2016-02-01T03:40:19.694Z,0
2016-02-01T03:41:19.680Z,0
2016-02-01T03:42:19.684Z,0
2016-02-01T03:43:19.702Z,0
2016-02-01T03:44:19.705Z,0
2016-02-01T03:45:19.771Z,0
2016-02-01T03:46:19.679Z,0
2016-02-01T03:47:19.697Z,0
2016-02-01T03:48:19.700Z,0
2016-02-01T03:49:19.702Z,0
2016-02-01T03:50:19.659Z,0
2016-02-01T03:51:19.678Z,0
2016-02-01T03:52:19.669Z,0
2016-02-01T03:53:19.671Z,0
2016-02-01T03:54:19.674Z,0
2016-02-01T03:55:19.818Z,0
2016-02-01T03:56:19.728Z,0
2016-02-01T03:57:19.730Z,0
2016-02-01T03:58:19.654Z,0
2016-02-01T03:59:19.657Z,0
2016-02-01T04:00:19.660Z,0
2016-02-01T04:01:19.666Z,0
2016-02-01T04:02:19.685Z,0
2016-02-01T04:03:19.672Z,0
2016-02-01T04:04:19.628Z,0
2016-02-01T04:05:19.633Z,0
2016-02-01T04:06:19.667Z,0
2016-02-01T04:07:19.654Z,0
2016-02-01T04:08:19.500Z,0
2016-02-01T04:09:19.628Z,0
2016-02-01T04:10:19.630Z,0
2016-02-01T04:11:19.633Z,0
2016-02-01T04:12:19.621Z,0
2016-02-01T04:13:19.638Z,0
2016-02-01T04:14:19.626Z,0
2016-02-01T04:15:19.644Z,0
2016-02-01T04:16:19.646Z,0
2016-02-01T04:17:19.603Z,0
2016-02-01T04:18:19.621Z,0
2016-02-01T04:19:19.609Z,0
2016-02-01T04:20:19.626Z,0
2016-02-01T04:21:19.709Z,0
2016-02-01T04:22:19.634Z,0
2016-02-01T04:23:19.622Z,0
2016-02-01T04:24:19.625Z,0
2016-02-01T04:25:20.018Z,0
2016-02-01T04:26:19.615Z,0
2016-02-01T04:27:19.602Z,0
2016-02-01T04:28:19.604Z,0
2016-02-01T04:29:19.607Z,0
2016-02-01T04:30:19.613Z,0
2016-02-01T04:31:19.584Z,0
2016-02-01T04:32:19.588Z,0
2016-02-01T04:33:19.590Z,0
2016-02-01T04:34:19.625Z,0
2016-02-01T04:35:19.612Z,0
2016-02-01T04:36:19.692Z,0
2016-02-01T04:37:18.837Z,0
2016-02-01T04:38:19.606Z,0
2016-02-01T04:39:19.561Z,0
2016-02-01T04:40:20.893Z,0
2016-02-01T04:41:21.131Z,0
2016-02-01T04:42:20.665Z,0
2016-02-01T04:43:19.715Z,0
2016-02-01T04:44:19.826Z,0
2016-02-01T04:45:19.798Z,0
2016-02-01T04:46:19.707Z,0
2016-02-01T04:47:19.694Z,0
2016-02-01T04:48:19.869Z,0
2016-02-01T04:49:20.091Z,0
2016-02-01T04:50:20.141Z,0
2016-02-01T04:51:19.960Z,0
2016-02-01T04:52:19.994Z,0
2016-02-01T04:53:19.966Z,0
2016-02-01T04:54:19.548Z,0
2016-02-01T04:55:19.566Z,0
2016-02-01T04:56:19.585Z,0
2016-02-01T04:57:20.978Z,0
2016-02-01T04:58:21.168Z,0
2016-02-01T04:59:19.983Z,0
2016-02-01T05:00:19.936Z,0
2016-02-01T05:01:19.814Z,0
2016-02-01T05:02:20.178Z,0
2016-02-01T05:03:19.681Z,0
2016-02-01T05:04:19.060Z,0
2016-02-01T05:05:20.906Z,0
2016-02-01T05:06:21.051Z,0
2016-02-01T05:07:19.819Z,0
2016-02-01T05:08:20.025Z,0
2016-02-01T05:09:19.933Z,0
2016-02-01T05:10:19.920Z,0
2016-02-01T05:11:20.002Z,0
2016-02-01T05:12:20.021Z,0
2016-02-01T05:13:19.914Z,0
2016-02-01T05:14:19.823Z,0
2016-02-01T05:15:19.920Z,0
2016-02-01T05:16:19.891Z,0
2016-02-01T05:17:19.706Z,0
2016-02-01T05:18:19.787Z,0
2016-02-01T05:19:19.948Z,0
2016-02-01T05:20:19.872Z,0
2016-02-01T05:21:19.719Z,0
2016-02-01T05:22:19.786Z,0
2016-02-01T05:23:19.867Z,0
2016-02-01T05:24:20.167Z,0
2016-02-01T05:25:19.826Z,0
2016-02-01T05:26:19.955Z,0
2016-02-01T05:27:19.832Z,0
2016-02-01T05:28:19.866Z,0
2016-02-01T05:29:19.712Z,0
2016-02-01T05:30:20.058Z,0
2016-02-01T05:31:19.969Z,0
2016-02-01T05:32:19.847Z,0
2016-02-01T05:33:20.146Z,0
2016-02-01T05:34:19.977Z,0
2016-02-01T05:35:19.276Z,0
2016-02-01T05:36:19.843Z,0
2016-02-01T05:37:19.518Z,0
2016-02-01T05:38:19.458Z,0
2016-02-01T05:39:19.461Z,0
2016-02-01T05:40:20.808Z,0
2016-02-01T05:41:21.185Z,0
2016-02-01T05:42:19.939Z,0
2016-02-01T05:43:19.988Z,0
2016-02-01T05:44:19.960Z,0
2016-02-01T05:45:19.995Z,0
2016-02-01T05:46:19.809Z,0
2016-02-01T05:47:19.772Z,0
2016-02-01T05:48:19.790Z,0
2016-02-01T05:49:19.918Z,0
2016-02-01T05:50:19.765Z,0
2016-02-01T05:51:19.693Z,0
2016-02-01T05:52:20.117Z,0
2016-02-01T05:53:19.696Z,0
2016-02-01T05:54:19.886Z,0
2016-02-01T05:55:20.061Z,0
2016-02-01T05:56:19.830Z,0
2016-02-01T05:57:20.005Z,0
2016-02-01T05:58:19.697Z,0
2016-02-01T05:59:20.169Z,0
2016-02-01T06:00:19.734Z,0
2016-02-01T06:01:20.147Z,0
2016-02-01T06:02:19.963Z,0
2016-02-01T06:03:19.983Z,0
2016-02-01T06:04:19.893Z,0
2016-02-01T06:05:19.771Z,0
2016-02-01T06:06:19.866Z,0
2016-02-01T06:07:20.076Z,0
2016-02-01T06:08:19.704Z,0
2016-02-01T06:09:19.722Z,0
2016-02-01T06:10:19.772Z,0
2016-02-01T06:11:19.869Z,0
2016-02-01T06:12:19.263Z,0
2016-02-01T06:13:19.751Z,0
2016-02-01T06:14:20.082Z,0
2016-02-01T06:15:19.835Z,0
2016-02-01T06:16:19.824Z,0
2016-02-01T06:17:20.546Z,0
2016-02-01T06:18:19.439Z,0
2016-02-01T06:19:19.614Z,0
2016-02-01T06:20:19.397Z,0
2016-02-01T06:21:20.798Z,0
2016-02-01T06:22:20.785Z,0
2016-02-01T06:23:20.914Z,0
2016-02-01T06:24:19.447Z,0
2016-02-01T06:25:22.450Z,0
2016-02-01T06:26:19.406Z,0
2016-02-01T06:27:19.409Z,0
2016-02-01T06:28:19.415Z,0
2016-02-01T06:29:19.417Z,0
2016-02-01T06:30:19.452Z,0
2016-02-01T06:31:19.391Z,0
2016-02-01T06:32:19.443Z,0
2016-02-01T06:33:19.415Z,0
2016-02-01T06:34:19.276Z,0
2016-02-01T06:35:19.592Z,0
2016-02-01T06:36:19.389Z,0
2016-02-01T06:37:19.394Z,0
2016-02-01T06:38:19.412Z,0
2016-02-01T06:39:19.400Z,0
2016-02-01T06:40:19.386Z,0
2016-02-01T06:41:19.390Z,0
2016-02-01T06:42:19.393Z,0
2016-02-01T06:43:19.414Z,0
2016-02-01T06:44:19.418Z,0
2016-02-01T06:45:19.389Z,5
2016-02-01T06:46:19.377Z,5
2016-02-01T06:47:19.399Z,5
2016-02-01T06:48:19.371Z,5
2016-02-01T06:49:18.702Z,5
2016-02-01T06:50:19.377Z,5
2016-02-01T06:51:19.363Z,5
2016-02-01T06:52:19.382Z,10
2016-02-01T06:53:19.401Z,10
2016-02-01T06:54:19.372Z,10
2016-02-01T06:55:19.452Z,10
2016-02-01T06:56:19.409Z,10
2016-02-01T06:57:19.399Z,10
2016-02-01T06:58:19.385Z,10
2016-02-01T06:59:19.357Z,10
2016-02-01T07:00:19.407Z,10
2016-02-01T07:01:19.409Z,15
2016-02-01T07:02:19.397Z,10
2016-02-01T07:03:19.353Z,15
2016-02-01T07:04:19.355Z,15
2016-02-01T07:05:19.390Z,10
2016-02-01T07:06:19.345Z,15
2016-02-01T07:07:19.363Z,15
2016-02-01T07:08:19.210Z,20
2016-02-01T07:09:19.353Z,20
2016-02-01T07:10:19.356Z,15
2016-02-01T07:11:19.343Z,20
2016-02-01T07:12:19.361Z,25
2016-02-01T07:13:19.397Z,20
2016-02-01T07:14:22.353Z,20
2016-02-01T07:15:19.356Z,20
2016-02-01T07:16:19.358Z,20
2016-02-01T07:17:19.362Z,30
2016-02-01T07:18:19.330Z,30
2016-02-01T07:19:19.348Z,30
2016-02-01T07:20:19.336Z,30
2016-02-01T07:21:19.322Z,30
2016-02-01T07:22:19.342Z,35
2016-02-01T07:23:19.392Z,35
2016-02-01T07:24:19.331Z,40
2016-02-01T07:25:19.350Z,40
2016-02-01T07:26:19.322Z,35
2016-02-01T07:27:19.372Z,40
2016-02-01T07:28:19.391Z,50
2016-02-01T07:29:19.333Z,50
2016-02-01T07:30:19.335Z,50
2016-02-01T07:31:19.338Z,50
2016-02-01T07:32:19.341Z,55
2016-02-01T07:33:19.334Z,50
2016-02-01T07:34:19.368Z,50
2016-02-01T07:35:19.371Z,45
2016-02-01T07:36:18.577Z,40
2016-02-01T07:37:19.345Z,35
2016-02-01T07:38:19.349Z,35
2016-02-01T07:39:19.319Z,30
2016-02-01T07:40:19.323Z,30
2016-02-01T07:41:19.341Z,30
2016-02-01T07:42:19.329Z,35
2016-02-01T07:43:19.349Z,35
2016-02-01T07:44:19.351Z,40
2016-02-01T07:45:19.354Z,40
2016-02-01T07:46:19.388Z,40
2016-02-01T07:47:19.326Z,45
2016-02-01T07:48:19.312Z,45
2016-02-01T07:49:19.320Z,45
2016-02-01T07:50:19.339Z,40
2016-02-01T07:51:19.309Z,40
2016-02-01T07:52:19.328Z,45
2016-02-01T07:53:19.315Z,45
2016-02-01T07:54:19.335Z,40
2016-02-01T07:55:19.321Z,35
2016-02-01T07:56:19.356Z,35
2016-02-01T07:57:18.577Z,40
2016-02-01T07:58:19.329Z,40
2016-02-01T07:59:19.176Z,40
2016-02-01T08:00:19.304Z,40
2016-02-01T08:01:19.323Z,50
2016-02-01T08:02:19.325Z,50
2016-02-01T08:03:19.312Z,50
2016-02-01T08:04:19.311Z,50
2016-02-01T08:05:19.331Z,50
2016-02-01T08:06:19.303Z,55
2016-02-01T08:07:19.309Z,60
2016-02-01T08:08:19.327Z,55
2016-02-01T08:09:19.330Z,55
2016-02-01T08:10:19.334Z,55
2016-02-01T08:11:19.336Z,55
2016-02-01T08:12:19.339Z,55
2016-02-01T08:13:19.311Z,60
2016-02-01T08:14:19.314Z,55
2016-02-01T08:15:19.316Z,50
2016-02-01T08:16:19.303Z,55
2016-02-01T08:17:19.306Z,60
2016-02-01T08:18:19.294Z,65
2016-02-01T08:19:19.312Z,65
2016-02-01T08:20:19.332Z,60
2016-02-01T08:21:19.304Z,60
2016-02-01T08:22:19.306Z,55
2016-02-01T08:23:19.310Z,65
2016-02-01T08:24:19.313Z,80
2016-02-01T08:25:19.346Z,85
2016-02-01T08:26:19.333Z,80
2016-02-01T08:27:19.304Z,75
2016-02-01T08:28:19.292Z,75
2016-02-01T08:29:19.326Z,80
2016-02-01T08:30:19.297Z,85
2016-02-01T08:31:19.333Z,90
2016-02-01T08:32:19.353Z,95
2016-02-01T08:33:19.325Z,100
2016-02-01T08:34:19.296Z,105
2016-02-01T08:35:19.331Z,115
2016-02-01T08:36:19.303Z,120
2016-02-01T08:37:19.306Z,120
2016-02-01T08:38:19.308Z,115
2016-02-01T08:39:19.296Z,110
2016-02-01T08:40:19.299Z,105
2016-02-01T08:41:19.285Z,105
2016-02-01T08:42:19.304Z,95
2016-02-01T08:43:19.338Z,90
2016-02-01T08:44:19.295Z,90
2016-02-01T08:45:19.313Z,105
2016-02-01T08:46:19.299Z,105
2016-02-01T08:47:19.287Z,105
2016-02-01T08:48:19.324Z,90
2016-02-01T08:49:19.295Z,90
2016-02-01T08:50:19.313Z,95
2016-02-01T08:51:19.316Z,105
2016-02-01T08:52:19.318Z,110
2016-02-01T08:53:19.291Z,105
2016-02-01T08:54:19.310Z,95
2016-02-01T08:55:19.298Z,95
2016-02-01T08:56:19.332Z,95
2016-02-01T08:57:19.304Z,110
2016-02-01T08:58:19.306Z,120
2016-02-01T08:59:19.340Z,110
2016-02-01T09:00:19.297Z,105
2016-02-01T09:01:19.330Z,100
2016-02-01T09:02:19.302Z,110
2016-02-01T09:03:19.305Z,100
2016-02-01T09:04:19.324Z,90
2016-02-01T09:05:19.296Z,90
2016-02-01T09:06:19.314Z,100
2016-02-01T09:07:19.332Z,105
2016-02-01T09:08:19.304Z,105
2016-02-01T09:09:19.324Z,100
2016-02-01T09:10:19.295Z,100
2016-02-01T09:11:19.298Z,100
2016-02-01T09:12:19.317Z,105
2016-02-01T09:13:19.303Z,100
2016-02-01T09:14:19.307Z,100
2016-02-01T09:15:19.326Z,100
2016-02-01T09:16:19.296Z,100
2016-02-01T09:17:18.593Z,100
2016-02-01T09:18:19.316Z,95
2016-02-01T09:19:18.676Z,100
2016-02-01T09:20:19.187Z,115
2016-02-01T09:21:19.315Z,125
2016-02-01T09:22:19.323Z,125
2016-02-01T09:23:19.294Z,130
2016-02-01T09:24:19.328Z,140
2016-02-01T09:25:19.408Z,145
2016-02-01T09:26:19.316Z,150
2016-02-01T09:27:19.304Z,140
2016-02-01T09:28:19.338Z,150
2016-02-01T09:29:19.140Z,150
2016-02-01T09:30:19.300Z,165
2016-02-01T09:31:19.328Z,175
2016-02-01T09:32:19.302Z,175
2016-02-01T09:33:19.290Z,190
2016-02-01T09:34:19.311Z,200
2016-02-01T09:35:19.253Z,210
2016-02-01T09:36:19.263Z,195
2016-02-01T09:37:19.261Z,175
2016-02-01T09:38:19.274Z,170
2016-02-01T09:39:19.240Z,170
2016-02-01T09:40:19.238Z,165
2016-02-01T09:41:19.258Z,165
2016-02-01T09:42:19.274Z,170
2016-02-01T09:43:19.228Z,175
2016-02-01T09:44:19.229Z,180
2016-02-01T09:45:19.246Z,190
2016-02-01T09:46:19.377Z,185
2016-02-01T09:47:19.223Z,180
2016-02-01T09:48:19.239Z,195
2016-02-01T09:49:19.242Z,225
2016-02-01T09:50:19.302Z,235
2016-02-01T09:51:19.227Z,235
2016-02-01T09:52:33.323Z,205
2016-02-01T09:53:19.232Z,185
2016-02-01T09:54:19.219Z,160
2016-02-01T09:55:19.441Z,145
2016-02-01T09:56:19.318Z,145
2016-02-01T09:57:19.290Z,140
2016-02-01T09:58:19.230Z,140
2016-02-01T09:59:19.233Z,145
2016-02-01T10:00:19.252Z,150
2016-02-01T10:01:19.225Z,150
2016-02-01T10:02:19.227Z,155
2016-02-01T10:03:19.277Z,150
2016-02-01T10:04:19.280Z,140
2016-02-01T10:05:19.282Z,140
2016-02-01T10:06:19.255Z,165
2016-02-01T10:07:19.258Z,175
2016-02-01T10:08:19.276Z,160
2016-02-01T10:09:19.247Z,160
2016-02-01T10:10:19.255Z,155
2016-02-01T10:11:19.289Z,180
2016-02-01T10:12:19.245Z,220
2016-02-01T10:13:19.263Z,195
2016-02-01T10:14:19.250Z,165
2016-02-01T10:15:19.503Z,120
2016-02-01T10:16:19.287Z,120
2016-02-01T10:17:19.258Z,170
2016-02-01T10:18:19.245Z,205
2016-02-01T10:19:19.265Z,205
2016-02-01T10:20:19.268Z,155
2016-02-01T10:21:19.270Z,135
2016-02-01T10:22:19.259Z,135
2016-02-01T10:23:19.278Z,145
2016-02-01T10:24:19.281Z,145
2016-02-01T10:25:19.284Z,135
2016-02-01T10:26:19.287Z,135
2016-02-01T10:27:19.149Z,145
2016-02-01T10:28:19.277Z,135
2016-02-01T10:29:19.326Z,115
2016-02-01T10:30:19.329Z,105
2016-02-01T10:31:19.303Z,105
2016-02-01T10:32:19.290Z,105
2016-02-01T10:33:19.293Z,110
2016-02-01T10:34:19.311Z,105
2016-02-01T10:35:19.309Z,110
2016-02-01T10:36:19.238Z,110
2016-02-01T10:37:18.991Z,120
2016-02-01T10:38:19.732Z,130
2016-02-01T10:39:19.626Z,150
2016-02-01T10:40:20.925Z,145
2016-02-01T10:41:19.303Z,145
2016-02-01T10:42:19.337Z,140
2016-02-01T10:43:19.324Z,130
2016-02-01T10:44:21.334Z,130
2016-02-01T10:45:19.148Z,120
2016-02-01T10:46:19.292Z,115
2016-02-01T10:47:19.295Z,110
2016-02-01T10:48:19.297Z,115
2016-02-01T10:49:19.315Z,110
2016-02-01T10:50:19.131Z,90
2016-02-01T10:51:19.489Z,95
2016-02-01T10:52:19.319Z,100
2016-02-01T10:53:19.338Z,95
2016-02-01T10:54:19.138Z,120
2016-02-01T10:55:19.172Z,135
2016-02-01T10:56:19.349Z,115
2016-02-01T10:57:19.383Z,100
2016-02-01T10:58:19.355Z,90
2016-02-01T10:59:19.999Z,85
2016-02-01T11:00:19.345Z,75
2016-02-01T11:01:19.520Z,75
2016-02-01T11:02:19.320Z,90
2016-02-01T11:03:19.322Z,95
2016-02-01T11:04:19.450Z,115
2016-02-01T11:05:19.344Z,125
2016-02-01T11:06:19.222Z,135
2016-02-01T11:07:19.536Z,150
2016-02-01T11:08:19.366Z,175
2016-02-01T11:09:19.338Z,195
2016-02-01T11:10:19.388Z,220
2016-02-01T11:11:19.310Z,215
2016-02-01T11:12:19.330Z,215
2016-02-01T11:13:19.412Z,210
2016-02-01T11:14:19.414Z,230
2016-02-01T11:15:19.620Z,240
2016-02-01T11:16:19.392Z,220
2016-02-01T11:17:19.363Z,230
2016-02-01T11:18:19.397Z,250
2016-02-01T11:19:19.463Z,265
2016-02-01T11:20:19.356Z,300
2016-02-01T11:21:19.378Z,305
2016-02-01T11:22:19.475Z,305
2016-02-01T11:23:19.354Z,255
2016-02-01T11:24:19.357Z,240
2016-02-01T11:25:19.563Z,250
2016-02-01T11:26:19.394Z,250
2016-02-01T11:27:19.583Z,220
2016-02-01T11:28:20.586Z,200
2016-02-01T11:29:19.948Z,200
2016-02-01T11:30:19.279Z,230
2016-02-01T11:31:19.376Z,225
2016-02-01T11:32:19.366Z,220
2016-02-01T11:33:18.759Z,225
2016-02-01T11:34:19.387Z,205
2016-02-01T11:35:19.452Z,200
2016-02-01T11:36:19.470Z,225
2016-02-01T11:37:19.536Z,230
2016-02-01T11:38:19.647Z,225
2016-02-01T11:39:19.401Z,240
2016-02-01T11:40:19.763Z,260
2016-02-01T11:41:19.396Z,250
2016-02-01T11:42:19.398Z,270
2016-02-01T11:43:19.495Z,290
2016-02-01T11:44:19.544Z,300
2016-02-01T11:45:19.766Z,320
2016-02-01T11:46:19.488Z,320
2016-02-01T11:47:19.427Z,305
2016-02-01T11:48:19.947Z,305
2016-02-01T11:49:19.636Z,275
2016-02-01T11:50:20.014Z,260
2016-02-01T11:51:19.423Z,245
2016-02-01T11:52:19.426Z,265
2016-02-01T11:53:20.536Z,245
2016-02-01T11:54:19.430Z,240
2016-02-01T11:55:19.447Z,245
2016-02-01T11:56:20.044Z,235
2016-02-01T11:57:19.409Z,220
2016-02-01T11:58:19.411Z,195
2016-02-01T11:59:19.461Z,220
2016-02-01T12:00:19.449Z,220
2016-02-01T12:01:19.420Z,215
2016-02-01T12:02:19.455Z,235
2016-02-01T12:03:19.442Z,220
2016-02-01T12:04:19.492Z,170
2016-02-01T12:05:19.494Z,165
2016-02-01T12:06:19.531Z,205
2016-02-01T12:07:19.486Z,230
2016-02-01T12:08:19.474Z,215
2016-02-01T12:09:19.461Z,215
2016-02-01T12:10:19.433Z,200
2016-02-01T12:11:19.482Z,205
2016-02-01T12:12:19.500Z,215
2016-02-01T12:13:19.520Z,200
2016-02-01T12:14:19.929Z,210
2016-02-01T12:15:19.478Z,215
2016-02-01T12:16:19.497Z,195
2016-02-01T12:17:19.468Z,230
2016-02-01T12:18:19.489Z,250
2016-02-01T12:19:19.695Z,260
2016-02-01T12:20:19.494Z,275
2016-02-01T12:21:19.481Z,265
2016-02-01T12:22:19.348Z,265
2016-02-01T12:23:19.396Z,275
2016-02-01T12:24:19.486Z,285
2016-02-01T12:25:19.508Z,320
2016-02-01T12:26:19.527Z,285
2016-02-01T12:27:19.700Z,305
2016-02-01T12:28:19.516Z,290
2016-02-01T12:29:19.535Z,310
2016-02-01T12:30:19.506Z,315
2016-02-01T12:31:19.524Z,355
2016-02-01T12:32:19.526Z,380
2016-02-01T12:33:19.546Z,375
2016-02-01T12:34:19.688Z,385
2016-02-01T12:35:19.551Z,360
2016-02-01T12:36:19.568Z,345
2016-02-01T12:37:19.587Z,335
2016-02-01T12:38:19.591Z,325
2016-02-01T12:39:19.625Z,320
2016-02-01T12:40:19.533Z,310
2016-02-01T12:41:19.864Z,305
2016-02-01T12:42:19.570Z,285
2016-02-01T12:43:19.572Z,270
2016-02-01T12:44:19.561Z,265
2016-02-01T12:45:19.594Z,255
2016-02-01T12:46:19.597Z,235
2016-02-01T12:47:19.568Z,200
2016-02-01T12:48:19.621Z,180
2016-02-01T12:49:19.609Z,165
2016-02-01T12:50:19.581Z,150
2016-02-01T12:51:19.614Z,150
2016-02-01T12:52:19.602Z,145
2016-02-01T12:53:19.825Z,160
2016-02-01T12:55:16.610Z,125
2016-02-01T12:55:29.360Z,125
2016-02-01T12:56:29.378Z,140
2016-02-01T12:57:29.412Z,145
2016-02-01T12:58:29.337Z,150
2016-02-01T12:59:29.324Z,135
2016-02-01T13:00:29.344Z,135
2016-02-01T13:01:29.393Z,140
2016-02-01T13:02:29.380Z,135
2016-02-01T13:03:30.100Z,135
2016-02-01T13:04:29.377Z,145
2016-02-01T13:05:29.387Z,170
2016-02-01T13:06:29.374Z,180
2016-02-01T13:07:29.377Z,180
2016-02-01T13:08:29.383Z,180
2016-02-01T13:09:29.370Z,175
2016-02-01T13:10:29.389Z,170
2016-02-01T13:11:29.454Z,170
2016-02-01T13:12:29.395Z,170
2016-02-01T13:13:29.412Z,175
2016-02-01T13:14:29.400Z,185
2016-02-01T13:15:29.402Z,190
2016-02-01T13:16:29.405Z,190
2016-02-01T13:17:29.423Z,200
2016-02-01T13:18:29.458Z,195
2016-02-01T13:19:29.444Z,205
2016-02-01T13:20:29.416Z,210
2016-02-01T13:21:29.731Z,205
2016-02-01T13:22:29.422Z,190
2016-02-01T13:23:29.456Z,175
2016-02-01T13:24:29.475Z,165
2016-02-01T13:25:29.510Z,155
2016-02-01T13:26:29.521Z,150
2016-02-01T13:27:29.493Z,150
2016-02-01T13:28:29.481Z,150
2016-02-01T13:29:29.484Z,160
2016-02-01T13:30:29.502Z,165
2016-02-01T13:31:29.473Z,150
2016-02-01T13:32:29.321Z,140
2016-02-01T13:33:29.515Z,130
2016-02-01T13:34:29.487Z,140
2016-02-01T13:35:29.740Z,135
2016-02-01T13:36:29.554Z,130
2016-02-01T13:37:29.495Z,130
2016-02-01T13:38:29.516Z,140
2016-02-01T13:39:29.518Z,135
2016-02-01T13:40:29.522Z,130
2016-02-01T13:41:29.525Z,115
2016-02-01T13:42:29.527Z,130
2016-02-01T13:43:29.546Z,125
2016-02-01T13:44:29.548Z,115
2016-02-01T13:45:29.537Z,105
2016-02-01T13:46:30.587Z,110
2016-02-01T13:47:29.574Z,110
2016-02-01T13:48:29.562Z,110
2016-02-01T13:49:29.596Z,85
2016-02-01T13:50:29.568Z,90
2016-02-01T13:51:29.571Z,90
2016-02-01T13:52:29.573Z,85
2016-02-01T13:53:29.607Z,95
2016-02-01T13:54:29.675Z,85
2016-02-01T13:55:29.600Z,105
2016-02-01T13:56:29.649Z,105
2016-02-01T13:57:29.535Z,120
2016-02-01T13:58:29.663Z,120
2016-02-01T13:59:29.651Z,130
2016-02-01T14:00:29.638Z,120
2016-02-01T14:01:30.374Z,125
2016-02-01T14:02:29.596Z,130
2016-02-01T14:03:29.504Z,135
2016-02-01T14:04:29.649Z,135
2016-02-01T14:05:29.684Z,120
2016-02-01T14:06:29.733Z,100
2016-02-01T14:07:29.627Z,110
2016-02-01T14:08:29.724Z,105
2016-02-01T14:09:29.664Z,100
2016-02-01T14:10:29.637Z,90
2016-02-01T14:11:29.671Z,95
2016-02-01T14:12:29.689Z,105
2016-02-01T14:13:29.677Z,85
2016-02-01T14:14:29.681Z,80
2016-02-01T14:15:29.731Z,80
2016-02-01T14:16:29.671Z,100
2016-02-01T14:17:29.689Z,115
2016-02-01T14:18:29.692Z,130
2016-02-01T14:19:29.694Z,145